Time;durP1;ratioP1;P1;durP2;ratioP2;P2;SDS_P1;SDS_P2;PMS_P1;PMS_P2;Temp;Humidity;BMP_temperature;BMP_pressure;BME280_temperature;BME280_humidity;BME280_pressure;Samples;Min_cycle;Max_cycle;Signal;HPM_P1;HPM_P2
2022/05/06 00:01:42;;;;;;;34.65;21.95;;;12.60;99.90;;;;;;5023823;28;20025;-73
2022/05/06 00:04:08;;;;;;;36.42;21.10;;;12.60;99.90;;;;;;5028078;28;20025;-73
2022/05/06 00:06:34;;;;;;;38.08;22.40;;;12.60;99.90;;;;;;5032559;28;20075;-73
2022/05/06 00:08:59;;;;;;;36.42;22.20;;;12.60;99.90;;;;;;5026150;28;20112;-73
2022/05/06 00:11:26;;;;;;;34.50;21.83;;;12.60;99.90;;;;;;5031181;28;20158;-73
2022/05/06 00:13:52;;;;;;;34.88;22.73;;;12.60;99.90;;;;;;5031507;28;20021;-74
2022/05/06 00:16:22;;;;;;;39.20;22.80;;;12.60;99.90;;;;;;5027322;28;20060;-73
2022/05/06 00:18:48;;;;;;;33.95;21.75;;;12.60;99.90;;;;;;5030068;28;20127;-74
2022/05/06 00:21:14;;;;;;;31.45;21.08;;;12.50;99.90;;;;;;5025396;28;20048;-74
2022/05/06 00:23:40;;;;;;;33.35;22.65;;;12.60;99.90;;;;;;5029278;28;20033;-73
2022/05/06 00:26:06;;;;;;;41.08;21.80;;;12.60;99.90;;;;;;5028899;28;20045;-73
2022/05/06 00:28:32;;;;;;;32.53;21.20;;;12.50;99.90;;;;;;5028528;28;20108;-73
2022/05/06 00:30:59;;;;;;;29.90;19.95;;;12.60;99.90;;;;;;5021857;28;20017;-74
2022/05/06 00:33:25;;;;;;;34.92;20.02;;;12.60;99.90;;;;;;5030397;28;20035;-75
2022/05/06 00:36:02;;;;;;;33.25;21.45;;;12.60;99.90;;;;;;5020895;28;20105;-72
2022/05/06 00:38:29;;;;;;;36.85;22.20;;;12.60;99.90;;;;;;5019084;28;20026;-72
2022/05/06 00:40:54;;;;;;;31.52;21.05;;;12.50;99.90;;;;;;5020006;28;20064;-72
2022/05/06 00:43:25;;;;;;;40.17;22.27;;;12.50;99.90;;;;;;5017314;28;20037;-72
2022/05/06 00:45:53;;;;;;;33.00;20.23;;;12.50;99.90;;;;;;5017659;28;20033;-72
2022/05/06 00:48:23;;;;;;;33.67;21.48;;;12.50;99.90;;;;;;5019080;28;20470;-73
2022/05/06 00:50:50;;;;;;;31.27;20.83;;;12.50;99.90;;;;;;5018815;28;20092;-73
2022/05/06 00:53:17;;;;;;;36.42;22.00;;;12.50;99.90;;;;;;5021349;28;20028;-73
2022/05/06 00:55:46;;;;;;;37.50;22.25;;;12.50;99.90;;;;;;5028952;28;20029;-73
2022/05/06 00:58:16;;;;;;;42.85;23.25;;;12.40;99.90;;;;;;5021532;28;20034;-73
2022/05/06 01:00:47;;;;;;;36.50;21.88;;;12.40;99.90;;;;;;5020145;28;20505;-74
2022/05/06 01:03:13;;;;;;;35.90;22.05;;;12.40;99.90;;;;;;5014286;28;20140;-74
2022/05/06 01:05:39;;;;;;;35.05;21.08;;;12.40;99.90;;;;;;5018587;28;20105;-73
2022/05/06 01:08:06;;;;;;;44.63;22.38;;;12.40;99.90;;;;;;5015291;28;20462;-72
2022/05/06 01:10:35;;;;;;;36.67;22.02;;;12.40;99.90;;;;;;5020207;28;20044;-72
2022/05/06 01:13:00;;;;;;;34.92;21.55;;;12.40;99.90;;;;;;5025736;28;20063;-72
2022/05/06 01:15:28;;;;;;;34.75;22.33;;;12.40;99.90;;;;;;5026382;28;20033;-72
2022/05/06 01:17:56;;;;;;;40.45;24.27;;;12.40;99.90;;;;;;5029466;28;20430;-72
2022/05/06 01:20:23;;;;;;;37.80;23.38;;;12.40;99.90;;;;;;5017049;28;20501;-72
2022/05/06 01:22:53;;;;;;;43.00;24.35;;;12.40;99.90;;;;;;5022796;28;22665;-71
2022/05/06 01:25:20;;;;;;;39.42;22.60;;;12.40;99.90;;;;;;5019738;28;20073;-72
2022/05/06 01:27:55;;;;;;;34.83;22.83;;;12.40;99.90;;;;;;5021844;28;20536;-72
2022/05/06 01:30:30;;;;;;;41.50;24.35;;;12.40;99.90;;;;;;5027536;28;20057;-73
2022/05/06 01:32:56;;;;;;;36.63;23.83;;;12.40;99.90;;;;;;5030765;28;20022;-72
2022/05/06 01:35:25;;;;;;;42.38;25.33;;;12.40;99.90;;;;;;5023518;28;20065;-72
2022/05/06 01:37:53;;;;;;;37.75;23.70;;;12.40;99.90;;;;;;5024503;28;20391;-73
2022/05/06 01:40:21;;;;;;;38.47;23.23;;;12.40;99.90;;;;;;5022538;28;20112;-73
2022/05/06 01:42:50;;;;;;;40.17;22.98;;;12.40;99.90;;;;;;5030181;28;20057;-73
2022/05/06 01:45:18;;;;;;;38.03;24.60;;;12.40;99.90;;;;;;5018575;28;20029;-73
2022/05/06 01:47:45;;;;;;;40.42;23.30;;;12.40;99.90;;;;;;5020638;28;20022;-72
2022/05/06 01:50:12;;;;;;;43.08;25.30;;;12.40;99.90;;;;;;5020125;28;20047;-72
2022/05/06 01:52:41;;;;;;;43.78;23.80;;;12.40;99.90;;;;;;5013819;28;20022;-72
2022/05/06 01:55:07;;;;;;;38.67;23.63;;;12.40;99.90;;;;;;5027798;28;20490;-73
2022/05/06 01:57:36;;;;;;;41.30;23.52;;;12.40;99.90;;;;;;5023328;28;20025;-72
2022/05/06 02:00:07;;;;;;;35.50;23.25;;;12.40;99.90;;;;;;5019797;28;20037;-73
2022/05/06 02:02:33;;;;;;;36.40;23.17;;;12.40;99.90;;;;;;5012300;28;20026;-73
2022/05/06 02:05:17;;;;;;;38.60;22.75;;;12.40;99.90;;;;;;5027060;28;20060;-74
2022/05/06 02:07:55;;;;;;;42.80;24.85;;;12.40;99.90;;;;;;5032030;28;20024;-74
2022/05/06 02:10:22;;;;;;;38.75;24.23;;;12.30;99.90;;;;;;5030678;28;20022;-73
2022/05/06 02:12:48;;;;;;;39.78;22.92;;;12.40;99.90;;;;;;5029082;28;20023;-72
2022/05/06 02:15:16;;;;;;;37.95;23.55;;;12.40;99.90;;;;;;5019542;28;20029;-72
2022/05/06 02:17:47;;;;;;;37.78;21.45;;;12.40;99.90;;;;;;5027143;28;20092;-73
2022/05/06 02:20:19;;;;;;;38.47;22.52;;;12.40;99.90;;;;;;5021104;28;20056;-72
2022/05/06 02:22:57;;;;;;;36.13;22.90;;;12.40;99.90;;;;;;5021486;28;20060;-72
2022/05/06 02:25:25;;;;;;;41.28;23.65;;;12.40;99.90;;;;;;5024955;28;20045;-73
2022/05/06 02:27:54;;;;;;;38.47;22.90;;;12.40;99.90;;;;;;5020997;28;20041;-73
2022/05/06 02:33:12;;;;;;;42.83;22.67;;;12.40;99.90;;;;;;5019634;28;20040;-74
2022/05/06 02:35:39;;;;;;;39.65;23.25;;;12.40;99.90;;;;;;5047361;28;20025;-74
2022/05/06 02:38:06;;;;;;;39.28;23.65;;;12.40;99.90;;;;;;5021759;28;20116;-74
2022/05/06 02:40:35;;;;;;;36.92;22.70;;;12.40;99.90;;;;;;5034328;28;20021;-74
2022/05/06 02:43:02;;;;;;;33.92;22.25;;;12.40;99.90;;;;;;5032655;28;20068;-73
2022/05/06 02:45:28;;;;;;;38.97;23.38;;;12.40;99.90;;;;;;5027096;28;20467;-72
2022/05/06 02:47:57;;;;;;;40.63;23.40;;;12.40;99.90;;;;;;5023682;28;20026;-73
2022/05/06 02:50:24;;;;;;;40.95;23.60;;;12.40;99.90;;;;;;5026615;28;20049;-73
2022/05/06 02:52:49;;;;;;;36.58;23.27;;;12.30;99.90;;;;;;5028460;28;20025;-73
2022/05/06 02:55:15;;;;;;;39.20;23.30;;;12.30;99.90;;;;;;5018111;28;20084;-73
2022/05/06 02:57:41;;;;;;;38.00;23.48;;;12.30;99.90;;;;;;5024299;28;20494;-73
2022/05/06 03:00:11;;;;;;;38.95;24.23;;;12.30;99.90;;;;;;5022374;28;20033;-73
2022/05/06 03:02:40;;;;;;;37.47;22.35;;;12.20;99.90;;;;;;5018577;28;20478;-74
2022/05/06 03:05:06;;;;;;;37.15;24.20;;;12.30;99.90;;;;;;5021221;28;20056;-74
2022/05/06 03:07:38;;;;;;;41.45;23.40;;;12.30;99.90;;;;;;5020514;28;20029;-73
2022/05/06 03:10:05;;;;;;;38.90;23.48;;;12.30;99.90;;;;;;5023958;28;20110;-74
2022/05/06 03:12:31;;;;;;;39.92;24.65;;;12.30;99.90;;;;;;5018213;28;20037;-74
2022/05/06 03:14:58;;;;;;;39.22;22.67;;;12.20;99.90;;;;;;5004812;28;20041;-74
2022/05/06 03:17:24;;;;;;;44.63;23.90;;;12.20;99.90;;;;;;5013832;28;20052;-74
2022/05/06 03:19:50;;;;;;;39.60;24.25;;;12.30;99.90;;;;;;5018303;28;20033;-74
2022/05/06 03:22:22;;;;;;;40.75;24.13;;;12.30;99.90;;;;;;5023481;28;20048;-74
2022/05/06 03:24:50;;;;;;;38.75;22.65;;;12.20;99.90;;;;;;5022964;28;20026;-74
2022/05/06 03:30:04;;;;;;;38.88;23.48;;;12.20;99.90;;;;;;5031441;28;20111;-73
2022/05/06 03:32:36;;;;;;;41.67;23.92;;;12.30;99.90;;;;;;5034917;28;20029;-73
2022/05/06 03:35:02;;;;;;;36.63;23.30;;;12.30;99.90;;;;;;5029486;28;20021;-73
2022/05/06 03:37:28;;;;;;;42.83;25.73;;;12.30;99.90;;;;;;5026852;28;20132;-73
2022/05/06 03:39:54;;;;;;;40.58;25.08;;;12.30;99.90;;;;;;5033155;28;20029;-73
2022/05/06 03:42:19;;;;;;;39.10;25.30;;;12.30;99.90;;;;;;5020558;28;20081;-73
2022/05/06 03:44:45;;;;;;;40.17;25.13;;;12.40;99.90;;;;;;5034260;28;20387;-74
2022/05/06 03:47:11;;;;;;;38.65;23.90;;;12.30;99.90;;;;;;5038990;28;20109;-73
2022/05/06 03:49:42;;;;;;;43.88;24.50;;;12.40;99.90;;;;;;5054544;28;20025;-74
2022/05/06 03:52:17;;;;;;;40.65;23.98;;;12.40;99.90;;;;;;5045755;28;20451;-75
2022/05/06 03:54:43;;;;;;;39.67;23.77;;;12.40;99.90;;;;;;5021697;28;20025;-75
2022/05/06 03:57:11;;;;;;;46.67;23.75;;;12.40;99.90;;;;;;5021870;28;20124;-74
2022/05/06 03:59:37;;;;;;;41.67;24.55;;;12.40;99.90;;;;;;5017221;28;20030;-75
2022/05/06 04:02:08;;;;;;;37.13;23.00;;;12.40;99.90;;;;;;5016520;28;20034;-74
2022/05/06 04:04:34;;;;;;;39.22;23.98;;;12.40;99.90;;;;;;5027827;28;20029;-74
2022/05/06 04:07:00;;;;;;;40.42;23.88;;;12.40;99.90;;;;;;5023125;28;20482;-74
2022/05/06 04:09:26;;;;;;;43.70;23.98;;;12.40;99.90;;;;;;5024289;28;20018;-73
2022/05/06 04:11:56;;;;;;;41.83;25.15;;;12.40;99.90;;;;;;5037390;28;20033;-75
2022/05/06 04:14:21;;;;;;;42.70;24.77;;;12.40;99.90;;;;;;5029576;28;20359;-75
2022/05/06 04:16:47;;;;;;;41.95;24.77;;;12.40;99.90;;;;;;5027708;28;20040;-75
2022/05/06 04:19:13;;;;;;;41.05;24.20;;;12.40;99.90;;;;;;5017228;28;20077;-73
2022/05/06 04:24:28;;;;;;;39.22;24.52;;;12.30;99.90;;;;;;5028919;28;20049;-72
2022/05/06 04:27:16;;;;;;;36.40;23.58;;;12.30;99.90;;;;;;5018481;28;20454;-73
2022/05/06 04:29:41;;;;;;;41.85;24.73;;;12.30;99.90;;;;;;5026426;28;20026;-72
2022/05/06 04:32:10;;;;;;;41.35;23.80;;;12.30;99.90;;;;;;5020595;28;20543;-73
2022/05/06 04:34:35;;;;;;;43.05;25.02;;;12.30;99.90;;;;;;5023836;28;20367;-73
2022/05/06 04:37:02;;;;;;;48.63;25.15;;;12.30;99.90;;;;;;5026863;28;20029;-72
2022/05/06 04:39:28;;;;;;;39.40;24.27;;;12.30;99.90;;;;;;5026529;28;20029;-72
2022/05/06 04:41:53;;;;;;;41.63;23.98;;;12.30;99.90;;;;;;5021801;28;20367;-72
2022/05/06 04:44:19;;;;;;;42.10;25.00;;;12.30;99.90;;;;;;5024603;28;20055;-73
2022/05/06 04:46:46;;;;;;;41.22;24.55;;;12.30;99.90;;;;;;5027635;28;20060;-73
2022/05/06 04:49:11;;;;;;;35.63;23.30;;;12.30;99.90;;;;;;5023108;28;20710;-73
2022/05/06 04:51:37;;;;;;;41.63;24.08;;;12.40;99.90;;;;;;5020273;28;20021;-72
2022/05/06 04:54:03;;;;;;;35.45;23.38;;;12.40;99.90;;;;;;5021384;28;20025;-76
2022/05/06 04:56:29;;;;;;;41.80;25.50;;;12.40;99.90;;;;;;5032672;28;20028;-75
2022/05/06 04:58:57;;;;;;;43.75;25.25;;;12.40;99.90;;;;;;5035450;28;20019;-73
2022/05/06 05:01:26;;;;;;;37.03;23.30;;;12.40;99.90;;;;;;5034207;28;20036;-76
2022/05/06 05:03:51;;;;;;;43.10;25.17;;;12.40;99.90;;;;;;5032602;28;20022;-76
2022/05/06 05:06:18;;;;;;;39.72;23.00;;;12.50;99.90;;;;;;5037656;28;20051;-76
2022/05/06 05:08:50;;;;;;;43.58;24.27;;;12.50;99.90;;;;;;5039012;28;20076;-76
2022/05/06 05:11:15;;;;;;;41.33;24.67;;;12.50;99.90;;;;;;5027003;28;20025;-76
2022/05/06 05:13:41;;;;;;;37.63;23.05;;;12.60;99.90;;;;;;5020187;28;20101;-75
2022/05/06 05:16:07;;;;;;;41.78;24.40;;;12.50;99.90;;;;;;5026400;28;20104;-74
2022/05/06 05:18:32;;;;;;;41.90;25.27;;;12.50;99.90;;;;;;5025558;28;20049;-76
2022/05/06 05:20:58;;;;;;;35.20;22.45;;;12.60;99.90;;;;;;5026132;28;20017;-75
2022/05/06 05:23:24;;;;;;;41.97;23.35;;;12.60;99.90;;;;;;5028455;28;20026;-76
2022/05/06 05:25:49;;;;;;;38.47;22.33;;;12.60;99.90;;;;;;5032593;28;20056;-74
2022/05/06 05:28:24;;;;;;;42.38;23.33;;;12.60;99.90;;;;;;5022107;28;20438;-76
2022/05/06 05:30:49;;;;;;;34.22;22.38;;;12.60;99.90;;;;;;5025914;28;20025;-75
2022/05/06 05:33:18;;;;;;;37.13;22.40;;;12.60;99.90;;;;;;5030311;28;20024;-76
2022/05/06 05:35:44;;;;;;;38.42;22.45;;;12.60;99.90;;;;;;5032464;28;20025;-75
2022/05/06 05:38:12;;;;;;;44.58;23.90;;;12.70;99.90;;;;;;5022718;28;20018;-74
2022/05/06 05:40:44;;;;;;;37.15;23.05;;;12.60;99.90;;;;;;5023754;28;20056;-77
2022/05/06 05:48:19;;;;;;;39.60;22.70;;;12.60;99.90;;;;;;5026327;28;20029;-75
2022/05/06 05:48:43;;;;;;;38.72;22.55;;;12.60;99.90;;;;;;5013444;28;20049;-74
2022/05/06 05:51:08;;;;;;;39.08;22.45;;;12.60;99.90;;;;;;5014894;28;20030;-71
2022/05/06 05:53:34;;;;;;;30.58;19.67;;;12.60;99.90;;;;;;5021688;28;20112;-73
2022/05/06 05:56:03;;;;;;;33.72;19.13;;;12.60;99.90;;;;;;5029065;28;20029;-73
2022/05/06 05:58:29;;;;;;;32.65;18.80;;;12.60;99.90;;;;;;5029480;28;20116;-73
2022/05/06 06:01:03;;;;;;;30.88;18.48;;;12.60;99.90;;;;;;5021347;28;20101;-75
2022/05/06 06:03:31;;;;;;;34.67;19.38;;;12.60;99.90;;;;;;5018448;28;20036;-75
2022/05/06 06:05:57;;;;;;;26.70;17.38;;;12.60;99.90;;;;;;5014241;28;20053;-72
2022/05/06 06:08:24;;;;;;;31.95;19.38;;;12.50;99.90;;;;;;5015781;28;20036;-74
2022/05/06 06:10:55;;;;;;;33.92;20.35;;;12.50;99.90;;;;;;5016424;28;20022;-73
2022/05/06 06:13:22;;;;;;;34.38;19.95;;;12.60;99.90;;;;;;5024772;28;20026;-71
2022/05/06 06:15:50;;;;;;;30.33;18.42;;;12.60;99.90;;;;;;5033207;28;20026;-72
2022/05/06 06:18:16;;;;;;;29.13;19.00;;;12.60;99.90;;;;;;5020223;28;20036;-72
2022/05/06 06:20:50;;;;;;;30.65;18.67;;;12.50;99.90;;;;;;5011136;28;20018;-72
2022/05/06 06:23:16;;;;;;;31.42;20.15;;;12.50;99.90;;;;;;5010313;28;20034;-73
2022/05/06 06:25:45;;;;;;;27.90;18.23;;;12.60;99.90;;;;;;5006226;28;20048;-74
2022/05/06 06:28:10;;;;;;;29.17;19.13;;;12.60;99.90;;;;;;5011166;28;20494;-66
2022/05/06 06:30:40;;;;;;;32.40;19.70;;;12.60;99.90;;;;;;5012448;28;20053;-65
2022/05/06 06:33:16;;;;;;;32.80;19.75;;;12.60;99.90;;;;;;5006273;28;20022;-66
2022/05/06 06:35:47;;;;;;;32.03;19.60;;;12.70;99.90;;;;;;5010320;28;20664;-67
2022/05/06 06:38:22;;;;;;;31.38;19.30;;;12.80;99.90;;;;;;5011921;28;20490;-74
2022/05/06 06:40:48;;;;;;;32.42;18.55;;;12.80;99.90;;;;;;5012879;28;20517;-73
2022/05/06 06:43:13;;;;;;;35.63;17.67;;;12.80;99.90;;;;;;5008497;28;20030;-72
2022/05/06 06:45:42;;;;;;;28.00;17.05;;;12.80;99.90;;;;;;5008046;28;20169;-73
2022/05/06 06:48:08;;;;;;;27.48;17.52;;;12.80;99.90;;;;;;5011050;28;20026;-72
2022/05/06 06:50:34;;;;;;;28.08;17.13;;;12.90;99.90;;;;;;5007947;28;20037;-73
2022/05/06 06:53:03;;;;;;;32.10;17.92;;;12.80;99.90;;;;;;5007752;28;20018;-73
2022/05/06 06:55:32;;;;;;;29.63;16.83;;;12.80;99.90;;;;;;5011565;28;20032;-72
2022/05/06 06:57:57;;;;;;;26.23;17.52;;;12.80;99.90;;;;;;5013424;28;20140;-72
2022/05/06 07:00:23;;;;;;;29.17;18.48;;;12.80;99.90;;;;;;5013162;28;20113;-73
2022/05/06 07:02:57;;;;;;;27.08;17.90;;;12.80;99.90;;;;;;5012858;28;20053;-71
2022/05/06 07:05:23;;;;;;;28.77;16.23;;;12.70;99.90;;;;;;5012287;28;20056;-72
2022/05/06 07:13:18;;;;;;;25.60;16.92;;;12.90;99.90;;;;;;5004840;28;20418;-73
2022/05/06 07:15:52;;;;;;;25.98;15.48;;;12.90;99.90;;;;;;5020148;28;20022;-73
2022/05/06 07:18:20;;;;;;;23.45;14.63;;;12.90;99.90;;;;;;5019116;28;20437;-73
2022/05/06 07:20:49;;;;;;;24.42;14.73;;;12.80;99.90;;;;;;5012488;28;20025;-73
2022/05/06 07:23:14;;;;;;;24.92;13.95;;;12.80;99.90;;;;;;5009831;28;20486;-73
2022/05/06 07:25:45;;;;;;;19.73;12.93;;;12.80;99.90;;;;;;5013471;28;20030;-74
2022/05/06 07:28:14;;;;;;;18.38;11.98;;;12.80;99.90;;;;;;5018200;28;20037;-73
2022/05/06 07:30:43;;;;;;;20.98;13.27;;;12.80;99.90;;;;;;5019422;28;20112;-73
2022/05/06 07:33:09;;;;;;;18.27;11.40;;;12.90;99.90;;;;;;5011992;28;20041;-73
2022/05/06 07:35:44;;;;;;;19.95;11.77;;;12.90;99.90;;;;;;5015916;28;20045;-73
2022/05/06 07:38:10;;;;;;;22.08;12.85;;;12.90;99.90;;;;;;5009674;28;20037;-74
2022/05/06 07:40:36;;;;;;;17.98;12.73;;;12.80;99.90;;;;;;5008517;28;20018;-74
2022/05/06 07:43:05;;;;;;;17.30;11.63;;;12.80;99.90;;;;;;5013550;28;20029;-72
2022/05/06 07:45:31;;;;;;;21.17;11.13;;;12.80;99.90;;;;;;5014788;28;20030;-72
2022/05/06 07:48:08;;;;;;;17.33;11.25;;;12.80;99.90;;;;;;5019224;28;20921;-73
2022/05/06 07:50:34;;;;;;;18.48;11.52;;;12.80;99.90;;;;;;5007602;28;20111;-73
2022/05/06 07:53:00;;;;;;;16.08;11.40;;;12.70;99.90;;;;;;5016481;28;20044;-74
2022/05/06 07:55:26;;;;;;;17.65;11.43;;;12.70;99.90;;;;;;5011399;28;20038;-70
2022/05/06 07:57:53;;;;;;;16.42;10.80;;;12.70;99.90;;;;;;5008794;28;20037;-74
2022/05/06 08:00:23;;;;;;;19.95;12.30;;;12.70;99.90;;;;;;5014738;28;20096;-73
2022/05/06 08:05:47;;;;;;;17.85;11.52;;;12.80;99.90;;;;;;5020215;28;20033;-73
2022/05/06 08:08:19;;;;;;;18.58;10.60;;;12.80;99.90;;;;;;5015771;28;20022;-73
2022/05/06 08:10:45;;;;;;;15.93;10.82;;;12.70;99.90;;;;;;5020134;28;20238;-74
2022/05/06 08:13:20;;;;;;;19.42;11.45;;;12.80;99.90;;;;;;5012102;28;20037;-73
2022/05/06 08:15:51;;;;;;;17.15;11.63;;;12.80;99.90;;;;;;5010806;28;20442;-71
2022/05/06 08:18:19;;;;;;;19.35;10.95;;;12.90;99.90;;;;;;5020285;28;20030;-72
2022/05/06 08:20:46;;;;;;;19.52;12.15;;;12.90;99.90;;;;;;5011745;28;20033;-72
2022/05/06 08:23:14;;;;;;;16.02;10.57;;;12.90;99.90;;;;;;5017958;28;20536;-73
2022/05/06 08:25:43;;;;;;;17.70;10.35;;;13.00;99.90;;;;;;5020312;28;20057;-73
2022/05/06 08:28:17;;;;;;;17.90;10.20;;;13.00;99.90;;;;;;5018471;28;20025;-74
2022/05/06 08:30:44;;;;;;;18.13;10.05;;;13.00;99.90;;;;;;5014290;28;20033;-73
2022/05/06 08:33:10;;;;;;;18.08;11.48;;;12.90;99.90;;;;;;5012724;28;20025;-75
2022/05/06 08:35:39;;;;;;;16.73;10.60;;;12.80;99.90;;;;;;5017300;28;20034;-74
2022/05/06 08:38:07;;;;;;;17.40;10.38;;;12.80;99.90;;;;;;5013358;28;20041;-72
2022/05/06 08:40:38;;;;;;;19.52;11.77;;;12.90;99.90;;;;;;5016285;28;20025;-73
2022/05/06 08:43:13;;;;;;;15.77;10.15;;;13.00;99.90;;;;;;5012423;28;20053;-74
2022/05/06 08:51:33;;;;;;;17.98;10.60;;;13.20;99.90;;;;;;5016851;28;20040;-75
2022/05/06 08:54:09;;;;;;;19.20;10.02;;;13.30;99.90;;;;;;5009060;28;20022;-72
2022/05/06 08:56:34;;;;;;;16.98;11.25;;;13.40;99.90;;;;;;5013257;28;20065;-71
2022/05/06 08:59:03;;;;;;;14.10;10.70;;;13.50;99.90;;;;;;5015802;28;20096;-73
2022/05/06 09:01:31;;;;;;;15.48;9.95;;;13.50;99.90;;;;;;5014848;28;20749;-73
2022/05/06 09:03:57;;;;;;;24.35;10.13;;;13.60;99.90;;;;;;5011236;28;20034;-74
2022/05/06 09:06:26;;;;;;;16.45;10.02;;;13.70;99.90;;;;;;5009757;28;20075;-73
2022/05/06 09:08:53;;;;;;;18.30;11.38;;;13.80;99.90;;;;;;5011541;28;20038;-72
2022/05/06 09:12:40;;;;;;;18.38;10.48;;;13.90;99.90;;;;;;5006518;28;20429;-74
2022/05/06 09:14:07;;;;;;;16.67;10.10;;;13.90;99.90;;;;;;5011994;28;20035;-73
2022/05/06 09:19:28;;;;;;;20.40;10.65;;;13.90;99.90;;;;;;5007216;28;20044;-73
2022/05/06 09:22:09;;;;;;;18.05;10.27;;;14.00;99.90;;;;;;5013599;28;20033;-72
2022/05/06 09:24:37;;;;;;;19.60;9.40;;;14.20;99.90;;;;;;5013092;28;20092;-72
2022/05/06 09:27:06;;;;;;;20.90;9.98;;;14.30;99.90;;;;;;5016140;28;20025;-74
2022/05/06 09:29:47;;;;;;;19.00;10.32;;;14.40;99.90;;;;;;5011435;28;20036;-73
2022/05/06 09:32:21;;;;;;;15.93;9.50;;;14.50;99.90;;;;;;5012096;28;20109;-72
2022/05/06 09:34:55;;;;;;;14.85;10.00;;;14.50;99.90;;;;;;5010567;28;20061;-72
2022/05/06 09:37:38;;;;;;;13.93;9.48;;;14.50;99.90;;;;;;5014258;28;20026;-74
2022/05/06 09:40:20;;;;;;;13.05;9.13;;;14.60;99.90;;;;;;5011265;28;20612;-74
2022/05/06 09:42:59;;;;;;;14.00;9.45;;;14.60;99.90;;;;;;5015904;28;20580;-74
2022/05/06 09:45:33;;;;;;;16.70;9.45;;;14.60;99.90;;;;;;5011463;28;20754;-74
2022/05/06 09:48:01;;;;;;;14.20;9.10;;;14.60;99.90;;;;;;5016004;28;20036;-74
2022/05/06 09:50:39;;;;;;;18.27;10.63;;;14.60;99.90;;;;;;5012120;28;20042;-74
2022/05/06 09:53:15;;;;;;;13.68;9.57;;;14.80;99.90;;;;;;5013879;28;20640;-73
2022/05/06 09:55:45;;;;;;;16.77;9.70;;;14.90;99.90;;;;;;5011919;28;20025;-73
2022/05/06 09:58:12;;;;;;;13.98;9.02;;;14.90;99.90;;;;;;5014177;28;20049;-73
2022/05/06 10:00:47;;;;;;;13.63;8.48;;;15.10;99.90;;;;;;5009486;28;20052;-75
2022/05/06 10:03:15;;;;;;;17.40;8.65;;;15.10;99.90;;;;;;5009427;28;20078;-73
2022/05/06 10:05:45;;;;;;;11.27;8.32;;;15.30;99.90;;;;;;5012399;28;20030;-73
2022/05/06 10:08:18;;;;;;;13.88;8.57;;;15.30;99.90;;;;;;5007520;28;20138;-75
2022/05/06 10:10:56;;;;;;;11.35;8.60;;;15.40;99.90;;;;;;5013057;28;20055;-72
2022/05/06 10:13:23;;;;;;;14.75;8.30;;;15.50;99.90;;;;;;5010617;28;20033;-73
2022/05/06 10:15:52;;;;;;;14.75;7.97;;;15.50;99.90;;;;;;5013318;28;20502;-74
2022/05/06 10:18:42;;;;;;;15.48;8.57;;;15.40;99.90;;;;;;5014147;28;20034;-73
2022/05/06 10:21:39;;;;;;;14.20;9.38;;;15.60;99.90;;;;;;5014168;28;20046;-73
2022/05/06 10:24:15;;;;;;;14.23;9.52;;;15.60;99.90;;;;;;5010885;28;20030;-74
2022/05/06 10:26:59;;;;;;;13.38;9.05;;;15.50;99.90;;;;;;5017886;28;20120;-72
2022/05/06 10:32:50;;;;;;;16.73;8.98;;;15.40;99.90;;;;;;5013748;28;20111;-74
2022/05/06 10:35:38;;;;;;;19.05;9.55;;;15.50;99.90;;;;;;5019186;28;20026;-74
2022/05/06 10:38:25;;;;;;;14.65;9.73;;;15.50;99.90;;;;;;5018667;28;20026;-73
2022/05/06 10:40:59;;;;;;;14.45;8.98;;;15.50;99.90;;;;;;5014363;28;20025;-73
2022/05/06 10:43:52;;;;;;;14.27;8.88;;;15.50;99.90;;;;;;5015970;28;20026;-72
2022/05/06 10:46:37;;;;;;;14.80;8.80;;;15.60;99.90;;;;;;5009367;28;20141;-72
2022/05/06 10:49:40;;;;;;;13.38;8.38;;;15.60;99.90;;;;;;5016641;28;20505;-73
2022/05/06 10:52:25;;;;;;;14.70;9.43;;;15.70;99.90;;;;;;5018053;28;20115;-70
2022/05/06 10:54:55;;;;;;;12.77;8.60;;;15.80;99.90;;;;;;5020855;28;20329;-73
2022/05/06 10:57:25;;;;;;;14.82;9.30;;;15.80;99.90;;;;;;5018628;28;20068;-72
2022/05/06 10:59:50;;;;;;;19.05;9.77;;;15.90;99.90;;;;;;5020820;28;20041;-73
2022/05/06 11:02:17;;;;;;;14.32;9.30;;;15.90;99.90;;;;;;5021980;28;20457;-72
2022/05/06 11:04:59;;;;;;;13.23;9.25;;;15.90;99.90;;;;;;5018200;28;20022;-73
2022/05/06 11:07:30;;;;;;;14.43;9.20;;;15.90;99.90;;;;;;5017800;28;20217;-72
2022/05/06 11:09:59;;;;;;;16.38;8.95;;;15.80;99.90;;;;;;5015775;28;20491;-72
2022/05/06 11:12:39;;;;;;;13.40;8.80;;;15.90;99.90;;;;;;5014822;28;20052;-73
2022/05/06 11:15:21;;;;;;;11.70;8.07;;;15.90;99.90;;;;;;5017957;28;20117;-72
2022/05/06 11:17:48;;;;;;;12.40;8.05;;;16.20;99.90;;;;;;5019817;28;20026;-73
2022/05/06 11:20:53;;;;;;;15.63;9.10;;;16.20;99.90;;;;;;5018292;28;20770;-72
2022/05/06 11:23:27;;;;;;;;;;;16.20;99.90;;;;;;5014661;28;20514;-72
2022/05/06 11:25:55;;;;;;;14.48;8.52;;;16.30;99.90;;;;;;5014224;28;19925;-72
2022/05/06 11:28:32;;;;;;;12.20;8.07;;;16.10;99.90;;;;;;5018085;28;20112;-73
2022/05/06 11:31:00;;;;;;;10.43;7.75;;;16.20;99.90;;;;;;5019352;28;20105;-73
2022/05/06 11:33:28;;;;;;;12.35;7.63;;;16.40;99.90;;;;;;5016340;28;20394;-72
2022/05/06 11:36:08;;;;;;;12.70;8.23;;;16.30;99.90;;;;;;5019334;28;20029;-73
2022/05/06 11:38:34;;;;;;;20.17;8.93;;;16.40;99.90;;;;;;5017465;28;20088;-72
2022/05/06 11:41:10;;;;;;;9.68;7.82;;;16.20;99.90;;;;;;5017133;28;20018;-74
2022/05/06 11:43:40;;;;;;;11.95;8.32;;;16.40;99.90;;;;;;5022448;28;20037;-71
2022/05/06 11:49:02;;;;;;;16.98;9.13;;;16.30;99.90;;;;;;5019167;28;20509;-72
2022/05/06 11:51:35;;;;;;;12.38;8.30;;;16.40;99.90;;;;;;5018227;28;20041;-73
2022/05/06 11:54:01;;;;;;;11.70;8.57;;;16.40;99.90;;;;;;5020143;28;20056;-72
2022/05/06 11:56:28;;;;;;;13.15;7.78;;;16.40;99.90;;;;;;5018366;28;20029;-72
2022/05/06 11:58:57;;;;;;;12.95;8.40;;;16.50;99.90;;;;;;5017190;28;20160;-72
2022/05/06 12:01:38;;;;;;;11.57;7.75;;;16.70;99.90;;;;;;5017778;28;20124;-73
2022/05/06 12:04:11;;;;;;;11.18;7.80;;;16.70;99.90;;;;;;5023930;28;20032;-72
2022/05/06 12:06:47;;;;;;;12.63;7.63;;;16.60;99.90;;;;;;5016549;28;20433;-73
2022/05/06 12:09:16;;;;;;;11.50;7.30;;;16.60;99.90;;;;;;5018057;28;20113;-73
2022/05/06 12:11:43;;;;;;;10.98;7.55;;;16.50;99.90;;;;;;5013135;28;20025;-73
2022/05/06 12:14:10;;;;;;;11.82;7.32;;;16.40;99.90;;;;;;5015321;28;20044;-71
2022/05/06 12:16:54;;;;;;;10.88;7.43;;;16.50;99.90;;;;;;5018925;28;20421;-73
2022/05/06 12:19:32;;;;;;;;;;;16.70;99.90;;;;;;5043138;22;20044;-71
2022/05/06 12:22:22;;;;;;;11.00;7.43;;;16.80;99.90;;;;;;5053621;28;19912;-71
2022/05/06 12:24:55;;;;;;;11.45;7.45;;;16.80;99.90;;;;;;5051556;28;20033;-71
2022/05/06 12:27:33;;;;;;;12.50;7.60;;;16.90;99.90;;;;;;5041987;28;20026;-70
2022/05/06 12:30:01;;;;;;;11.07;7.20;;;16.90;99.90;;;;;;5037955;28;20032;-70
2022/05/06 12:32:30;;;;;;;11.20;7.20;;;16.90;99.90;;;;;;5037933;28;20428;-71
2022/05/06 12:35:05;;;;;;;13.05;7.03;;;16.90;99.90;;;;;;5027701;28;20025;-71
2022/05/06 12:37:31;;;;;;;9.88;6.72;;;16.90;99.90;;;;;;5029115;28;20030;-72
2022/05/06 12:39:59;;;;;;;10.98;7.82;;;16.90;99.90;;;;;;5029777;28;20084;-71
2022/05/06 12:42:28;;;;;;;11.75;7.78;;;17.00;99.90;;;;;;5031414;28;20057;-72
2022/05/06 12:45:02;;;;;;;11.25;7.32;;;17.10;99.90;;;;;;5029743;28;20397;-71
2022/05/06 12:50:17;;;;;;;10.48;6.75;;;17.20;99.90;;;;;;5030821;28;20512;-72
2022/05/06 12:52:43;;;;;;;10.23;6.80;;;17.30;99.90;;;;;;5030387;28;20504;-71
2022/05/06 12:55:12;;;;;;;11.52;7.18;;;17.20;99.90;;;;;;5033201;28;20021;-73
2022/05/06 12:57:49;;;;;;;10.35;6.95;;;17.30;99.90;;;;;;5032390;28;20064;-73
2022/05/06 13:00:21;;;;;;;10.70;7.28;;;17.20;99.90;;;;;;5026580;28;20022;-72
2022/05/06 13:03:00;;;;;;;18.35;7.63;;;17.30;99.70;;;;;;5029709;28;20018;-71
2022/05/06 13:05:29;;;;;;;10.57;6.68;;;17.30;99.70;;;;;;5025141;28;20025;-73
2022/05/06 13:07:55;;;;;;;10.52;6.78;;;17.50;99.80;;;;;;5025843;28;20080;-72
2022/05/06 13:10:21;;;;;;;10.13;6.53;;;17.50;99.70;;;;;;5031951;28;20045;-71
2022/05/06 13:12:49;;;;;;;12.50;7.07;;;17.70;99.60;;;;;;5027920;28;20099;-71
2022/05/06 13:15:15;;;;;;;13.63;7.70;;;17.80;99.20;;;;;;5023767;28;20331;-72
2022/05/06 13:17:41;;;;;;;11.10;7.22;;;17.80;98.80;;;;;;5029654;28;20030;-70
2022/05/06 13:20:16;;;;;;;13.57;7.18;;;17.80;98.70;;;;;;5022895;28;20131;-70
2022/05/06 13:22:51;;;;;;;10.88;6.70;;;17.90;98.50;;;;;;5043686;28;20144;-72